Time;durP1;ratioP1;P1;durP2;ratioP2;P2;SDS_P1;SDS_P2;PMS_P1;PMS_P2;Temp;Humidity;BMP_temperature;BMP_pressure;BME280_temperature;BME280_humidity;BME280_pressure;Samples;Min_cycle;Max_cycle;Signal;HPM_P1;HPM_P2
2023/10/28 00:01:27;;;;;;;;;;;19.80;59.10;;;;;;1531655;76;1170;-63
2023/10/28 00:03:29;;;;;;;;;;;19.80;59.10;;;;;;1535064;76;713;-62
2023/10/28 00:05:34;;;;;;;;;;;19.80;59.10;;;;;;1535441;76;676;-63
2023/10/28 00:07:36;;;;;;;;;;;19.80;59.10;;;;;;1535066;76;803;-63
2023/10/28 00:09:40;;;;;;;;;;;19.80;59.10;;;;;;1533445;76;1926;-63
2023/10/28 00:11:42;;;;;;;;;;;19.80;59.00;;;;;;1538030;76;1584;-63
2023/10/28 00:13:44;;;;;;;;;;;19.80;59.10;;;;;;1531539;76;709;-63
2023/10/28 00:15:45;;;;;;;;;;;19.80;59.00;;;;;;1534476;76;768;-63
2023/10/28 00:17:48;;;;;;;;;;;19.80;59.00;;;;;;1534447;76;679;-63
2023/10/28 00:19:50;;;;;;;;;;;19.80;59.00;;;;;;1535006;76;761;-64
2023/10/28 00:21:52;;;;;;;;;;;19.80;59.00;;;;;;1534776;76;1130;-63
2023/10/28 00:23:56;;;;;;;;;;;19.70;59.10;;;;;;1535322;76;757;-63
2023/10/28 00:26:01;;;;;;;;;;;19.70;59.00;;;;;;1533552;76;1615;-63
2023/10/28 00:28:03;;;;;;;;;;;19.70;59.10;;;;;;1538179;76;793;-63
2023/10/28 00:30:07;;;;;;;;;;;19.80;59.10;;;;;;1533513;76;1912;-64
2023/10/28 00:32:09;;;;;;;;;;;19.70;59.00;;;;;;1531661;76;1141;-62
2023/10/28 00:34:12;;;;;;;;;;;19.80;59.10;;;;;;1534311;76;808;-64
2023/10/28 00:36:15;;;;;;;;;;;19.80;59.00;;;;;;1533221;76;695;-63
2023/10/28 00:38:17;;;;;;;;;;;19.80;59.00;;;;;;1535117;76;698;-63
2023/10/28 00:40:19;;;;;;;;;;;19.80;59.00;;;;;;1531523;76;1553;-63
2023/10/28 00:42:21;;;;;;;;;;;19.80;59.00;;;;;;1534644;76;1148;-64
2023/10/28 00:44:23;;;;;;;;;;;19.70;59.00;;;;;;1529170;76;689;-63
2023/10/28 00:46:25;;;;;;;;;;;19.80;59.00;;;;;;1534712;76;681;-63
2023/10/28 00:48:29;;;;;;;;;;;19.70;59.00;;;;;;1534941;76;687;-62
2023/10/28 00:50:31;;;;;;;;;;;19.80;59.00;;;;;;1533935;76;1936;-64
2023/10/28 00:52:33;;;;;;;;;;;19.80;59.00;;;;;;1534163;76;1095;-63
2023/10/28 00:54:35;;;;;;;;;;;19.80;59.00;;;;;;1537240;76;1558;-64
2023/10/28 00:56:37;;;;;;;;;;;19.70;59.00;;;;;;1535239;76;683;-63
2023/10/28 00:58:40;;;;;;;;;;;19.80;59.00;;;;;;1537461;76;689;-64
2023/10/28 01:00:42;;;;;;;;;;;19.80;59.00;;;;;;1534405;76;730;-63
2023/10/28 01:02:44;;;;;;;;;;;19.80;59.00;;;;;;1529746;76;1171;-63
2023/10/28 01:04:46;;;;;;;;;;;19.80;59.00;;;;;;1538554;76;763;-63
2023/10/28 01:06:48;;;;;;;;;;;19.80;59.00;;;;;;1535430;76;710;-63
2023/10/28 01:08:49;;;;;;;;;;;19.80;59.00;;;;;;1535546;76;1931;-63
2023/10/28 01:10:51;;;;;;;;;;;19.70;59.00;;;;;;1535529;76;745;-64
2023/10/28 01:12:53;;;;;;;;;;;19.70;59.00;;;;;;1534908;76;1165;-64
2023/10/28 01:14:56;;;;;;;;;;;19.70;59.00;;;;;;1530194;76;973;-63
2023/10/28 01:16:58;;;;;;;;;;;19.80;59.00;;;;;;1535507;76;667;-62
2023/10/28 01:19:00;;;;;;;;;;;19.70;59.00;;;;;;1535905;76;740;-63
2023/10/28 01:21:12;;;;;;;;;;;19.80;58.90;;;;;;1535253;76;1160;-64
2023/10/28 01:23:14;;;;;;;;;;;19.70;58.90;;;;;;1533375;76;1602;-64
2023/10/28 01:25:16;;;;;;;;;;;19.70;58.90;;;;;;1533495;76;672;-64
2023/10/28 01:27:18;;;;;;;;;;;19.80;58.90;;;;;;1533509;76;655;-63
2023/10/28 01:29:20;;;;;;;;;;;19.70;58.90;;;;;;1537506;76;1924;-64
2023/10/28 01:31:22;;;;;;;;;;;19.80;58.90;;;;;;1533911;76;1122;-64
2023/10/28 01:33:24;;;;;;;;;;;19.70;58.90;;;;;;1531823;76;687;-63
2023/10/28 01:35:26;;;;;;;;;;;19.80;58.90;;;;;;1535009;76;727;-62
2023/10/28 01:37:28;;;;;;;;;;;19.70;58.90;;;;;;1534537;76;1658;-64
2023/10/28 01:39:31;;;;;;;;;;;19.70;58.90;;;;;;1535978;76;751;-64
2023/10/28 01:41:33;;;;;;;;;;;19.80;58.90;;;;;;1534398;76;1142;-64
2023/10/28 01:43:35;;;;;;;;;;;19.70;58.90;;;;;;1532603;76;730;-63
2023/10/28 01:45:37;;;;;;;;;;;19.80;58.90;;;;;;1533389;76;688;-63
2023/10/28 01:47:39;;;;;;;;;;;19.80;58.90;;;;;;1536960;76;708;-61
2023/10/28 01:49:42;;;;;;;;;;;19.70;58.90;;;;;;1536973;76;1951;-63
2023/10/28 01:51:44;;;;;;;;;;;19.70;58.90;;;;;;1525984;76;1561;-63
2023/10/28 01:53:46;;;;;;;;;;;19.80;58.90;;;;;;1535415;76;716;-63
2023/10/28 01:55:48;;;;;;;;;;;19.70;58.90;;;;;;1529743;76;635;-63
2023/10/28 01:57:50;;;;;;;;;;;19.80;58.80;;;;;;1534666;76;789;-63
2023/10/28 01:59:52;;;;;;;;;;;19.70;58.90;;;;;;1532399;76;756;-64
2023/10/28 02:01:54;;;;;;;;;;;19.70;58.90;;;;;;1534996;76;1189;-64
2023/10/28 02:03:56;;;;;;;;;;;19.70;58.90;;;;;;1534503;76;1567;-63
2023/10/28 02:05:58;;;;;;;;;;;19.70;58.80;;;;;;1535502;76;697;-61
2023/10/28 02:08:00;;;;;;;;;;;19.70;58.90;;;;;;1533973;76;721;-62
2023/10/28 02:10:02;;;;;;;;;;;19.70;58.80;;;;;;1535890;76;1943;-64
2023/10/28 02:12:07;;;;;;;;;;;19.70;58.80;;;;;;1530752;76;1192;-64
2023/10/28 02:14:11;;;;;;;;;;;19.70;58.80;;;;;;1532223;76;677;-62
2023/10/28 02:16:14;;;;;;;;;;;19.70;58.80;;;;;;1535061;76;709;-64
2023/10/28 02:18:18;;;;;;;;;;;19.70;58.80;;;;;;1534943;76;1284;-63
2023/10/28 02:20:20;;;;;;;;;;;19.70;58.80;;;;;;1534198;76;752;-63
2023/10/28 02:22:21;;;;;;;;;;;19.70;58.80;;;;;;1532667;76;1119;-63
2023/10/28 02:24:23;;;;;;;;;;;19.70;58.80;;;;;;1535142;76;713;-62
2023/10/28 02:26:25;;;;;;;;;;;19.70;58.80;;;;;;1534015;76;691;-63
2023/10/28 02:28:27;;;;;;;;;;;19.70;58.80;;;;;;1535917;76;605;-61
2023/10/28 02:30:29;;;;;;;;;;;19.70;58.80;;;;;;1538490;76;1938;-62
2023/10/28 02:32:31;;;;;;;;;;;20.00;58.90;;;;;;1527547;76;1388;-63
2023/10/28 02:34:33;;;;;;;;;;;19.70;58.80;;;;;;1535262;76;706;-63
2023/10/28 02:36:35;;;;;;;;;;;19.70;58.80;;;;;;1538952;76;660;-63
2023/10/28 02:38:36;;;;;;;;;;;19.70;58.80;;;;;;1535031;76;747;-63
2023/10/28 02:40:38;;;;;;;;;;;19.70;58.70;;;;;;1532460;76;678;-62
2023/10/28 02:42:41;;;;;;;;;;;19.70;58.70;;;;;;1534860;76;1114;-64
2023/10/28 02:44:43;;;;;;;;;;;19.70;58.70;;;;;;1530143;76;748;-63
2023/10/28 02:46:45;;;;;;;;;;;19.80;58.80;;;;;;1534588;76;1377;-64
2023/10/28 02:48:47;;;;;;;;;;;19.70;58.80;;;;;;1539255;76;684;-62
2023/10/28 02:50:49;;;;;;;;;;;19.70;58.80;;;;;;1530528;76;1960;-63
2023/10/28 02:52:53;;;;;;;;;;;19.70;58.80;;;;;;1532176;76;1128;-65
2023/10/28 02:54:55;;;;;;;;;;;19.70;58.80;;;;;;1537025;76;758;-64
2023/10/28 02:56:57;;;;;;;;;;;19.70;58.80;;;;;;1534623;76;746;-64
2023/10/28 02:58:59;;;;;;;;;;;19.70;58.70;;;;;;1535003;76;730;-64
2023/10/28 03:01:10;;;;;;;;;;;19.70;58.70;;;;;;1534410;76;1636;-64
2023/10/28 03:03:12;;;;;;;;;;;19.70;58.70;;;;;;1529098;76;788;-62
2023/10/28 03:05:14;;;;;;;;;;;19.70;58.70;;;;;;1535847;76;684;-62
2023/10/28 03:07:16;;;;;;;;;;;20.10;59.00;;;;;;1530528;76;687;-65
2023/10/28 03:09:18;;;;;;;;;;;19.70;58.80;;;;;;1538233;76;797;-63
2023/10/28 03:11:20;;;;;;;;;;;19.70;58.80;;;;;;1531396;76;1932;-64
2023/10/28 03:13:22;;;;;;;;;;;19.70;58.70;;;;;;1534048;76;735;-63
2023/10/28 03:15:24;;;;;;;;;;;19.70;58.70;;;;;;1533166;76;1507;-64
2023/10/28 03:17:26;;;;;;;;;;;19.70;58.70;;;;;;1537777;76;684;-63
2023/10/28 03:19:28;;;;;;;;;;;19.70;58.70;;;;;;1533693;76;755;-63
2023/10/28 03:21:30;;;;;;;;;;;19.70;58.70;;;;;;1532558;76;1123;-64
2023/10/28 03:23:32;;;;;;;;;;;19.70;58.70;;;;;;1534906;76;752;-64
2023/10/28 03:25:34;;;;;;;;;;;19.70;58.70;;;;;;1534537;76;690;-63
2023/10/28 03:27:36;;;;;;;;;;;19.70;58.70;;;;;;1536901;76;773;-65
2023/10/28 03:29:39;;;;;;;;;;;19.70;58.70;;;;;;1537036;76;1933;-65
2023/10/28 03:31:41;;;;;;;;;;;19.70;58.70;;;;;;1531323;76;1097;-64
2023/10/28 03:33:43;;;;;;;;;;;19.80;58.70;;;;;;1534602;76;725;-64
2023/10/28 03:35:45;;;;;;;;;;;19.70;58.70;;;;;;1533973;76;759;-64
2023/10/28 03:37:47;;;;;;;;;;;19.70;58.70;;;;;;1534989;76;754;-64
2023/10/28 03:39:49;;;;;;;;;;;19.70;58.70;;;;;;1531543;76;716;-63
2023/10/28 03:41:51;;;;;;;;;;;19.70;58.70;;;;;;1535269;76;1122;-63
2023/10/28 03:43:53;;;;;;;;;;;19.80;58.70;;;;;;1533142;76;1573;-62
2023/10/28 03:45:55;;;;;;;;;;;19.70;58.70;;;;;;1534835;76;710;-63
2023/10/28 03:47:57;;;;;;;;;;;19.70;58.70;;;;;;1530680;76;695;-65
2023/10/28 03:49:59;;;;;;;;;;;19.70;58.70;;;;;;1537680;76;1944;-64
2023/10/28 03:52:01;;;;;;;;;;;19.80;58.70;;;;;;1535092;76;1158;-64
2023/10/28 03:54:03;;;;;;;;;;;19.70;58.70;;;;;;1530877;76;728;-64
2023/10/28 03:56:05;;;;;;;;;;;19.70;58.70;;;;;;1535066;76;753;-64
2023/10/28 03:58:07;;;;;;;;;;;19.70;58.70;;;;;;1534969;76;1606;-65
2023/10/28 04:00:11;;;;;;;;;;;19.70;58.70;;;;;;1533824;76;715;-64
2023/10/28 04:02:13;;;;;;;;;;;19.70;58.70;;;;;;1533436;76;1123;-64
2023/10/28 04:04:15;;;;;;;;;;;19.80;58.60;;;;;;1532798;76;690;-64
2023/10/28 04:06:17;;;;;;;;;;;19.70;58.60;;;;;;1532814;76;713;-62
2023/10/28 04:08:19;;;;;;;;;;;19.70;58.60;;;;;;1532718;76;705;-62
2023/10/28 04:10:21;;;;;;;;;;;19.70;58.60;;;;;;1540037;76;1923;-64
2023/10/28 04:12:23;;;;;;;;;;;19.70;58.60;;;;;;1533474;76;1690;-64
2023/10/28 04:14:25;;;;;;;;;;;19.60;58.50;;;;;;1533936;76;761;-62
2023/10/28 04:16:27;;;;;;;;;;;19.70;58.60;;;;;;1535053;76;675;-64
2023/10/28 04:18:29;;;;;;;;;;;19.70;58.60;;;;;;1535362;76;672;-63
2023/10/28 04:20:31;;;;;;;;;;;19.70;58.60;;;;;;1536521;76;717;-63
2023/10/28 04:22:33;;;;;;;;;;;19.70;58.60;;;;;;1532194;76;1059;-65
2023/10/28 04:24:35;;;;;;;;;;;19.70;58.60;;;;;;1536637;76;1408;-63
2023/10/28 04:26:37;;;;;;;;;;;19.70;58.60;;;;;;1533267;76;713;-63
2023/10/28 04:28:39;;;;;;;;;;;19.70;58.60;;;;;;1535005;76;695;-63
2023/10/28 04:30:41;;;;;;;;;;;19.70;58.60;;;;;;1535501;76;1944;-64
2023/10/28 04:32:43;;;;;;;;;;;19.70;58.60;;;;;;1531346;76;1081;-64
2023/10/28 04:34:45;;;;;;;;;;;19.80;58.60;;;;;;1537419;76;799;-64
2023/10/28 04:36:47;;;;;;;;;;;19.70;58.60;;;;;;1537140;76;828;-62
2023/10/28 04:38:49;;;;;;;;;;;19.70;58.60;;;;;;1535237;76;1568;-63
2023/10/28 04:40:51;;;;;;;;;;;20.10;58.70;;;;;;1531866;76;703;-64
2023/10/28 04:42:53;;;;;;;;;;;19.70;58.60;;;;;;1535682;76;1073;-64
2023/10/28 04:44:55;;;;;;;;;;;19.70;58.60;;;;;;1530060;76;700;-62
2023/10/28 04:46:57;;;;;;;;;;;19.70;58.50;;;;;;1535137;76;693;-63
2023/10/28 04:48:59;;;;;;;;;;;19.70;58.50;;;;;;1535521;76;678;-64
2023/10/28 04:51:02;;;;;;;;;;;19.70;58.60;;;;;;1536768;75;1936;-64
2023/10/28 04:53:04;;;;;;;;;;;19.70;58.50;;;;;;1531997;76;1446;-63
2023/10/28 04:55:06;;;;;;;;;;;19.70;58.60;;;;;;1533018;76;750;-63
2023/10/28 04:57:09;;;;;;;;;;;19.70;58.50;;;;;;1537027;76;679;-64
2023/10/28 04:59:12;;;;;;;;;;;19.70;58.50;;;;;;1535084;76;781;-64
2023/10/28 05:01:14;;;;;;;;;;;19.70;58.60;;;;;;1537193;76;1121;-64
2023/10/28 05:03:16;;;;;;;;;;;19.70;58.50;;;;;;1535598;76;788;-64
2023/10/28 05:05:18;;;;;;;;;;;19.70;58.50;;;;;;1536485;76;650;-64
2023/10/28 05:07:20;;;;;;;;;;;19.70;58.50;;;;;;1530696;76;1582;-62
2023/10/28 05:09:22;;;;;;;;;;;19.60;58.40;;;;;;1536378;76;745;-65
2023/10/28 05:11:25;;;;;;;;;;;19.70;58.50;;;;;;1532707;76;1945;-62
2023/10/28 05:13:27;;;;;;;;;;;19.60;58.40;;;;;;1532096;76;676;-63
2023/10/28 05:15:32;;;;;;;;;;;19.70;58.50;;;;;;1536862;76;701;-65
2023/10/28 05:17:34;;;;;;;;;;;19.60;58.40;;;;;;1538557;76;704;-63
2023/10/28 05:19:37;;;;;;;;;;;19.70;58.60;;;;;;1535332;76;746;-63
2023/10/28 05:21:39;;;;;;;;;;;19.70;58.50;;;;;;1530276;76;1368;-61
2023/10/28 05:23:41;;;;;;;;;;;19.90;58.60;;;;;;1535147;76;779;-63
2023/10/28 05:25:45;;;;;;;;;;;19.70;58.50;;;;;;1535173;76;677;-63
2023/10/28 05:27:46;;;;;;;;;;;19.70;58.60;;;;;;1540935;76;1181;-64
2023/10/28 05:29:48;;;;;;;;;;;19.70;58.50;;;;;;1535605;76;727;-63
2023/10/28 05:31:50;;;;;;;;;;;19.60;58.40;;;;;;1533439;76;1947;-64
2023/10/28 05:33:52;;;;;;;;;;;19.70;58.50;;;;;;1533874;76;724;-62
2023/10/28 05:35:54;;;;;;;;;;;19.70;58.50;;;;;;1535310;76;1566;-62
2023/10/28 05:37:57;;;;;;;;;;;19.70;58.50;;;;;;1534127;76;755;-63
2023/10/28 05:39:59;;;;;;;;;;;19.70;58.50;;;;;;1535898;76;688;-62
2023/10/28 05:42:01;;;;;;;;;;;19.70;58.50;;;;;;1533969;76;1111;-63
2023/10/28 05:44:04;;;;;;;;;;;19.70;58.50;;;;;;1527457;76;783;-63
2023/10/28 05:46:06;;;;;;;;;;;19.60;58.40;;;;;;1534243;76;720;-62
2023/10/28 05:48:09;;;;;;;;;;;19.70;58.50;;;;;;1535208;76;709;-63
2023/10/28 05:50:10;;;;;;;;;;;19.70;58.50;;;;;;1532237;76;1586;-63
2023/10/28 05:52:13;;;;;;;;;;;19.70;58.50;;;;;;1535523;76;1948;-62
2023/10/28 05:54:15;;;;;;;;;;;19.70;58.50;;;;;;1530516;76;716;-63
2023/10/28 05:56:17;;;;;;;;;;;19.70;58.50;;;;;;1533623;76;802;-62
2023/10/28 05:58:20;;;;;;;;;;;19.70;58.50;;;;;;1532894;75;717;-63
2023/10/28 06:00:22;;;;;;;;;;;19.70;58.50;;;;;;1535422;76;676;-62
2023/10/28 06:02:26;;;;;;;;;;;19.60;58.40;;;;;;1536509;76;1157;-62
2023/10/28 06:04:30;;;;;;;;;;;19.70;58.50;;;;;;1529893;76;1425;-63
2023/10/28 06:06:31;;;;;;;;;;;19.60;58.40;;;;;;1530723;76;706;-61
2023/10/28 06:08:33;;;;;;;;;;;19.70;58.50;;;;;;1533885;76;741;-63
2023/10/28 06:10:35;;;;;;;;;;;19.70;58.50;;;;;;1534797;76;1948;-63
2023/10/28 06:12:37;;;;;;;;;;;19.70;58.50;;;;;;1540801;75;1185;-64
2023/10/28 06:14:40;;;;;;;;;;;19.70;58.50;;;;;;1535025;76;675;-63
2023/10/28 06:16:44;;;;;;;;;;;19.70;58.40;;;;;;1534291;76;689;-63
2023/10/28 06:18:46;;;;;;;;;;;19.60;58.40;;;;;;1531646;76;1615;-62
2023/10/28 06:20:48;;;;;;;;;;;19.60;58.40;;;;;;1529161;76;742;-63
2023/10/28 06:22:52;;;;;;;;;;;19.70;58.50;;;;;;1532056;76;1113;-63
2023/10/28 06:24:54;;;;;;;;;;;19.70;58.50;;;;;;1530107;76;720;-63
2023/10/28 06:26:57;;;;;;;;;;;19.70;58.50;;;;;;1534136;76;696;-62
2023/10/28 06:28:59;;;;;;;;;;;19.70;58.50;;;;;;1534781;76;793;-62
2023/10/28 06:31:01;;;;;;;;;;;19.70;58.50;;;;;;1534798;76;1928;-62
2023/10/28 06:33:03;;;;;;;;;;;20.10;58.60;;;;;;1534300;76;1271;-64
2023/10/28 06:35:05;;;;;;;;;;;19.60;58.40;;;;;;1534269;76;730;-63
2023/10/28 06:37:07;;;;;;;;;;;19.70;58.40;;;;;;1537571;76;762;-63
2023/10/28 06:39:09;;;;;;;;;;;19.60;58.30;;;;;;1533017;76;704;-63
2023/10/28 06:41:11;;;;;;;;;;;19.70;58.40;;;;;;1532486;76;1118;-62
2023/10/28 06:43:13;;;;;;;;;;;19.70;58.40;;;;;;1534215;76;728;-63
2023/10/28 06:45:15;;;;;;;;;;;19.70;58.40;;;;;;1532724;76;1526;-62
2023/10/28 06:47:17;;;;;;;;;;;19.70;58.30;;;;;;1534987;76;674;-63
2023/10/28 06:49:19;;;;;;;;;;;19.70;58.40;;;;;;1534500;76;676;-63
2023/10/28 06:51:21;;;;;;;;;;;19.70;58.30;;;;;;1512926;76;1932;-64
2023/10/28 06:53:23;;;;;;;;;;;19.70;58.30;;;;;;1513514;76;720;-62
2023/10/28 06:55:26;;;;;;;;;;;19.70;58.30;;;;;;1516077;76;688;-62
2023/10/28 06:57:30;;;;;;;;;;;19.60;58.20;;;;;;1514100;76;753;-62
2023/10/28 06:59:34;;;;;;;;;;;19.70;58.30;;;;;;1510452;76;1200;-62
2023/10/28 07:01:35;;;;;;;;;;;19.60;58.20;;;;;;1523858;76;1494;-62
2023/10/28 07:03:37;;;;;;;;;;;19.60;58.30;;;;;;1516068;76;686;-62
2023/10/28 07:05:39;;;;;;;;;;;19.70;58.30;;;;;;1556013;75;699;-62
2023/10/28 07:07:44;;;;;;;;;;;19.70;58.30;;;;;;1545208;75;694;-63
2023/10/28 07:09:46;;;;;;;;;;;19.70;58.30;;;;;;1553157;75;869;-62
2023/10/28 07:11:48;;;;;;;;;;;19.70;58.30;;;;;;1565134;75;2025;-62
2023/10/28 07:13:50;;;;;;;;;;;19.70;58.30;;;;;;1519873;76;1527;-61
2023/10/28 07:15:54;;;;;;;;;;;19.70;58.30;;;;;;1527783;76;690;-62
2023/10/28 07:17:56;;;;;;;;;;;19.70;58.30;;;;;;1520442;77;1798;-62
2023/10/28 07:19:58;;;;;;;;;;;19.70;58.30;;;;;;1525696;76;766;-63
2023/10/28 07:22:00;;;;;;;;;;;19.70;58.30;;;;;;1526450;76;1164;-64
2023/10/28 07:24:02;;;;;;;;;;;19.60;58.20;;;;;;1532548;76;691;-64
2023/10/28 07:26:04;;;;;;;;;;;19.70;58.30;;;;;;1524423;76;728;-63
2023/10/28 07:28:12;;;;;;;;;;;19.60;58.20;;;;;;1555456;75;1544;-63
2023/10/28 07:30:14;;;;;;;;;;;19.70;58.30;;;;;;1528538;76;1430;-63
2023/10/28 07:32:14;;;;;;;;;;;19.80;58.30;;;;;;1535695;76;1932;-62
2023/10/28 07:34:15;;;;;;;;;;;19.60;58.20;;;;;;1543553;76;754;-63
2023/10/28 07:36:17;;;;;;;;;;;19.70;58.30;;;;;;1548309;75;697;-64
2023/10/28 07:38:20;;;;;;;;;;;19.60;58.20;;;;;;1546639;75;666;-63
2023/10/28 07:40:21;;;;;;;;;;;19.70;58.30;;;;;;1539282;75;687;-64
2023/10/28 07:42:24;;;;;;;;;;;19.60;58.30;;;;;;1530930;76;1596;-63
2023/10/28 07:44:26;;;;;;;;;;;19.70;58.30;;;;;;1540369;76;723;-62
2023/10/28 07:46:30;;;;;;;;;;;19.70;58.30;;;;;;1539922;75;753;-63
2023/10/28 07:48:32;;;;;;;;;;;19.70;58.30;;;;;;1540004;76;807;-63
2023/10/28 07:50:34;;;;;;;;;;;19.70;58.30;;;;;;1540202;76;689;-64
2023/10/28 07:52:36;;;;;;;;;;;19.60;58.20;;;;;;1537698;75;2398;-63
2023/10/28 07:54:38;;;;;;;;;;;19.60;58.20;;;;;;1539690;76;719;-63
2023/10/28 07:56:41;;;;;;;;;;;19.70;58.30;;;;;;1536414;76;1370;-63
2023/10/28 07:58:44;;;;;;;;;;;19.70;58.30;;;;;;1541622;75;682;-63
2023/10/28 08:00:46;;;;;;;;;;;19.60;58.20;;;;;;1540624;75;688;-64
2023/10/28 08:02:48;;;;;;;;;;;19.60;58.20;;;;;;1536874;75;1174;-63
2023/10/28 08:04:51;;;;;;;;;;;19.60;58.20;;;;;;1538865;76;742;-63
2023/10/28 08:06:53;;;;;;;;;;;19.60;58.20;;;;;;1533408;75;1765;-63
2023/10/28 08:08:55;;;;;;;;;;;19.70;58.30;;;;;;1539872;76;687;-63
2023/10/28 08:10:59;;;;;;;;;;;19.60;58.20;;;;;;1540270;75;1505;-63
2023/10/28 08:13:02;;;;;;;;;;;19.70;58.40;;;;;;1537382;75;1932;-63
2023/10/28 08:15:04;;;;;;;;;;;19.60;58.20;;;;;;1534238;76;723;-64
2023/10/28 08:17:05;;;;;;;;;;;19.70;58.30;;;;;;1539484;75;724;-63
2023/10/28 08:19:08;;;;;;;;;;;19.70;58.30;;;;;;1538925;75;730;-63
2023/10/28 08:21:10;;;;;;;;;;;19.60;58.20;;;;;;1540996;75;1247;-63
2023/10/28 08:23:12;;;;;;;;;;;19.60;58.20;;;;;;1539124;75;683;-63
2023/10/28 08:25:16;;;;;;;;;;;19.60;58.20;;;;;;1539833;76;1651;-64
2023/10/28 08:27:19;;;;;;;;;;;19.60;58.10;;;;;;1540368;76;684;-64
2023/10/28 08:29:21;;;;;;;;;;;19.60;58.20;;;;;;1539481;75;709;-64
2023/10/28 08:31:23;;;;;;;;;;;19.60;58.20;;;;;;1538957;75;1934;-63
2023/10/28 08:33:25;;;;;;;;;;;19.60;58.20;;;;;;1539447;76;719;-63
2023/10/28 08:35:28;;;;;;;;;;;19.70;58.20;;;;;;1540945;76;721;-63
2023/10/28 08:37:31;;;;;;;;;;;19.70;58.20;;;;;;1539908;75;704;-62
2023/10/28 08:39:33;;;;;;;;;;;19.60;58.20;;;;;;1540087;76;1610;-63
2023/10/28 08:41:35;;;;;;;;;;;19.70;58.30;;;;;;1541447;75;1150;-63
2023/10/28 08:43:37;;;;;;;;;;;19.70;58.20;;;;;;1540353;76;956;-63
2023/10/28 08:45:39;;;;;;;;;;;19.70;58.20;;;;;;1539757;75;713;-62
2023/10/28 08:47:41;;;;;;;;;;;19.60;58.10;;;;;;1544520;75;674;-63
2023/10/28 08:49:43;;;;;;;;;;;19.70;58.20;;;;;;1540796;76;703;-63
2023/10/28 08:51:47;;;;;;;;;;;19.60;58.10;;;;;;1538035;75;1955;-62
2023/10/28 08:53:49;;;;;;;;;;;19.70;58.20;;;;;;1532201;76;995;-62
2023/10/28 08:55:51;;;;;;;;;;;19.60;58.10;;;;;;1538684;75;773;-62
2023/10/28 08:57:53;;;;;;;;;;;19.60;58.10;;;;;;1538716;75;676;-63
2023/10/28 08:59:55;;;;;;;;;;;19.70;58.20;;;;;;1543244;75;635;-63
2023/10/28 09:01:57;;;;;;;;;;;19.60;58.10;;;;;;1539959;75;1084;-63
2023/10/28 09:04:00;;;;;;;;;;;19.60;58.10;;;;;;1535045;76;709;-63
2023/10/28 09:06:02;;;;;;;;;;;19.70;58.20;;;;;;1537241;75;1526;-61
2023/10/28 09:08:04;;;;;;;;;;;19.60;58.00;;;;;;1539810;75;990;-63
2023/10/28 09:10:06;;;;;;;;;;;19.60;58.10;;;;;;1539920;75;1035;-63
2023/10/28 09:12:11;;;;;;;;;;;19.60;58.00;;;;;;1539580;75;1947;-63
2023/10/28 09:14:13;;;;;;;;;;;19.60;58.00;;;;;;1534843;76;712;-63
2023/10/28 09:16:15;;;;;;;;;;;19.60;58.00;;;;;;1543281;75;710;-62
2023/10/28 09:18:16;;;;;;;;;;;19.70;58.20;;;;;;1541498;75;732;-63
2023/10/28 09:20:18;;;;;;;;;;;19.70;58.10;;;;;;1540072;75;1552;-63
2023/10/28 09:22:20;;;;;;;;;;;19.60;58.00;;;;;;1539142;75;1122;-63
2023/10/28 09:24:24;;;;;;;;;;;19.60;58.10;;;;;;1539656;75;731;-64
2023/10/28 09:26:26;;;;;;;;;;;19.70;58.20;;;;;;1538378;75;1555;-63
2023/10/28 09:28:48;;;;;;;;;;;19.60;58.10;;;;;;1540255;76;680;-63
2023/10/28 09:30:49;;;;;;;;;;;19.60;58.10;;;;;;1527086;76;695;-63
2023/10/28 09:32:53;;;;;;;;;;;19.60;58.10;;;;;;1523599;77;1945;-64
2023/10/28 09:34:56;;;;;;;;;;;19.60;58.00;;;;;;1552402;75;1539;-62
2023/10/28 09:36:58;;;;;;;;;;;19.70;58.10;;;;;;1554895;75;806;-63
2023/10/28 09:39:00;;;;;;;;;;;19.70;58.10;;;;;;1548400;75;776;-63
2023/10/28 09:41:02;;;;;;;;;;;19.70;58.10;;;;;;1556472;75;1121;-64
2023/10/28 09:43:04;;;;;;;;;;;19.70;58.20;;;;;;1545034;75;686;-64
2023/10/28 09:45:08;;;;;;;;;;;19.70;58.10;;;;;;1541009;75;778;-63
2023/10/28 09:47:10;;;;;;;;;;;19.60;58.00;;;;;;1555051;75;766;-64
2023/10/28 09:49:12;;;;;;;;;;;19.60;58.10;;;;;;1544920;75;1541;-64
2023/10/28 09:51:14;;;;;;;;;;;19.70;58.20;;;;;;1549816;75;1163;-64
2023/10/28 09:53:16;;;;;;;;;;;19.60;58.00;;;;;;1551787;75;1944;-63
2023/10/28 09:55:20;;;;;;;;;;;19.70;58.20;;;;;;1541718;75;718;-64
2023/10/28 09:57:22;;;;;;;;;;;19.70;58.20;;;;;;1550028;75;691;-63
2023/10/28 09:59:24;;;;;;;;;;;19.70;58.20;;;;;;1546592;75;663;-62
2023/10/28 10:01:34;;;;;;;;;;;19.60;58.10;;;;;;1546879;75;1129;-62
2023/10/28 10:03:37;;;;;;;;;;;19.70;58.30;;;;;;1545414;75;1562;-61
2023/10/28 10:05:45;;;;;;;;;;;19.60;58.60;;;;;;1548849;75;1162;-62
2023/10/28 10:07:47;;;;;;;;;;;19.60;58.90;;;;;;1548656;75;863;-63
2023/10/28 10:09:49;;;;;;;;;;;19.70;59.70;;;;;;1545764;75;696;-63
2023/10/28 10:11:51;;;;;;;;;;;19.70;60.10;;;;;;1548292;75;1181;-63
2023/10/28 10:13:55;;;;;;;;;;;19.70;61.40;;;;;;1552103;75;1966;-63
2023/10/28 10:16:03;;;;;;;;;;;19.70;62.10;;;;;;1554376;75;895;-62
2023/10/28 10:18:07;;;;;;;;;;;19.80;61.60;;;;;;1551913;75;839;-61
2023/10/28 10:20:09;;;;;;;;;;;19.80;61.40;;;;;;1548855;75;771;-63
2023/10/28 10:22:11;;;;;;;;;;;19.80;62.80;;;;;;1548705;75;1109;-62
2023/10/28 10:24:16;;;;;;;;;;;19.80;62.40;;;;;;1550923;75;732;-62
2023/10/28 10:26:24;;;;;;;;;;;19.90;62.40;;;;;;1550897;75;1519;-62
2023/10/28 10:28:26;;;;;;;;;;;19.90;62.30;;;;;;1549091;75;1861;-62
2023/10/28 10:30:30;;;;;;;;;;;19.90;62.30;;;;;;1551065;75;1534;-61
2023/10/28 10:32:33;;;;;;;;;;;19.90;62.30;;;;;;1541833;75;1964;-63
2023/10/28 10:34:45;;;;;;;;;;;19.90;62.10;;;;;;1545614;75;1933;-63
2023/10/28 10:36:43;;;;;;;;;;;19.90;62.50;;;;;;1548791;75;1467;-62
2023/10/28 10:38:45;;;;;;;;;;;19.90;62.30;;;;;;1552285;75;687;-62
2023/10/28 10:40:50;;;;;;;;;;;19.80;62.40;;;;;;1550519;75;707;-62
2023/10/28 10:42:55;;;;;;;;;;;19.90;62.30;;;;;;1540167;75;1139;-62
2023/10/28 10:44:55;;;;;;;;;;;19.80;62.50;;;;;;1540818;75;1530;-61
2023/10/28 10:46:58;;;;;;;;;;;19.80;62.40;;;;;;1543561;75;1392;-62
2023/10/28 10:48:59;;;;;;;;;;;19.90;62.50;;;;;;1549917;75;1296;-62
2023/10/28 10:51:02;;;;;;;;;;;19.80;62.10;;;;;;1546568;75;1259;-61
2023/10/28 10:53:04;;;;;;;;;;;19.90;62.10;;;;;;1546334;75;1915;-62
2023/10/28 10:55:06;;;;;;;;;;;19.90;62.00;;;;;;1545632;75;1106;-61
2023/10/28 10:57:08;;;;;;;;;;;19.90;61.80;;;;;;1541780;75;1610;-62
2023/10/28 10:59:10;;;;;;;;;;;19.80;61.60;;;;;;1548077;75;1477;-62
2023/10/28 11:01:12;;;;;;;;;;;19.90;61.50;;;;;;1552155;75;1123;-62
2023/10/28 11:03:14;;;;;;;;;;;19.90;61.40;;;;;;1548137;75;1331;-62
2023/10/28 11:05:16;;;;;;;;;;;19.90;61.20;;;;;;1544574;75;1354;-62
2023/10/28 11:07:19;;;;;;;;;;;19.80;61.00;;;;;;1545239;75;1488;-61
2023/10/28 11:09:21;;;;;;;;;;;19.80;60.80;;;;;;1547218;75;1308;-61
2023/10/28 11:11:24;;;;;;;;;;;19.80;60.60;;;;;;1550478;75;1322;-61
2023/10/28 11:13:26;;;;;;;;;;;19.90;60.60;;;;;;1548964;75;1919;-63
2023/10/28 11:15:28;;;;;;;;;;;19.80;60.30;;;;;;1551556;75;1363;-62
2023/10/28 11:17:30;;;;;;;;;;;19.80;60.10;;;;;;1535281;76;1336;-62
2023/10/28 11:19:32;;;;;;;;;;;19.80;59.90;;;;;;1550656;75;1274;-62
2023/10/28 11:21:34;;;;;;;;;;;19.80;59.70;;;;;;1546222;75;1330;-62
2023/10/28 11:23:37;;;;;;;;;;;19.80;59.50;;;;;;1549903;75;1506;-62
2023/10/28 11:25:39;;;;;;;;;;;19.80;59.30;;;;;;1551560;75;1075;-60
2023/10/28 11:27:40;;;;;;;;;;;19.80;59.20;;;;;;1542421;75;1269;-62
2023/10/28 11:29:42;;;;;;;;;;;19.80;59.10;;;;;;1547874;75;1275;-61
2023/10/28 11:31:45;;;;;;;;;;;19.90;59.00;;;;;;1545936;75;1153;-60
2023/10/28 11:33:52;;;;;;;;;;;19.80;58.80;;;;;;1550132;75;1959;-62
2023/10/28 11:35:52;;;;;;;;;;;19.80;58.70;;;;;;1551583;75;1624;-62
2023/10/28 11:37:54;;;;;;;;;;;19.80;58.60;;;;;;1547698;75;1321;-62
2023/10/28 11:39:56;;;;;;;;;;;19.80;58.50;;;;;;1545418;75;1803;-61
2023/10/28 11:41:58;;;;;;;;;;;19.80;58.40;;;;;;1548491;75;1481;-60
2023/10/28 11:44:01;;;;;;;;;;;19.90;58.30;;;;;;1540168;75;1320;-62
2023/10/28 11:46:03;;;;;;;;;;;19.80;58.20;;;;;;1543947;75;1348;-63
2023/10/28 11:48:07;;;;;;;;;;;19.90;58.20;;;;;;1553503;75;1149;-63
2023/10/28 11:50:09;;;;;;;;;;;19.80;58.00;;;;;;1553258;75;1564;-63
2023/10/28 11:52:12;;;;;;;;;;;19.80;57.80;;;;;;1542594;75;1141;-64
2023/10/28 11:54:14;;;;;;;;;;;19.90;57.90;;;;;;1543804;75;1943;-64
2023/10/28 11:56:19;;;;;;;;;;;19.80;57.80;;;;;;1550755;74;1404;-65
2023/10/28 11:58:19;;;;;;;;;;;19.80;57.00;;;;;;1553529;75;1768;-63
2023/10/28 12:00:22;;;;;;;;;;;19.70;54.20;;;;;;1551821;75;1250;-63
2023/10/28 12:02:25;;;;;;;;;;;19.70;56.00;;;;;;1547012;75;1515;-62
2023/10/28 12:04:27;;;;;;;;;;;19.70;56.60;;;;;;1551789;75;1082;-63
2023/10/28 12:06:30;;;;;;;;;;;19.80;56.50;;;;;;1548211;75;1117;-62
2023/10/28 12:08:33;;;;;;;;;;;19.70;56.30;;;;;;1546531;75;1075;-64